createdAt,value
2023-01-07T00:01:32.391Z,7.34
2023-01-07T00:04:00.944Z,7.35
2023-01-07T00:06:39.690Z,7.36
2023-01-07T00:09:08.858Z,7.37
2023-01-07T00:11:38.416Z,7.36
2023-01-07T00:14:07.574Z,7.40
2023-01-07T00:16:35.971Z,7.39
2023-01-07T00:19:04.483Z,7.38
2023-01-07T00:21:31.645Z,7.37
2023-01-07T00:24:03.697Z,7.40
2023-01-07T00:26:33.008Z,7.40
2023-01-07T00:29:00.378Z,7.33
2023-01-07T00:31:30.678Z,7.32
2023-01-07T00:33:57.801Z,7.32
2023-01-07T00:36:29.877Z,7.43
2023-01-07T00:39:05.712Z,7.49
2023-01-07T00:41:33.068Z,7.47
2023-01-07T00:43:59.962Z,7.46
2023-01-07T00:46:27.415Z,7.47
2023-01-07T00:48:54.356Z,7.44
2023-01-07T00:51:21.218Z,7.44
2023-01-07T00:53:48.451Z,7.44
2023-01-07T00:56:16.409Z,7.41
2023-01-07T00:58:43.442Z,7.32
2023-01-07T01:01:11.449Z,7.36
2023-01-07T01:03:39.730Z,7.30
2023-01-07T01:06:14.852Z,7.23
2023-01-07T01:08:46.629Z,7.20
2023-01-07T01:11:16.064Z,7.18
2023-01-07T01:13:44.659Z,7.18
2023-01-07T01:16:18.051Z,7.18
2023-01-07T01:18:45.529Z,7.18
2023-01-07T01:21:14.850Z,7.16
2023-01-07T01:23:42.648Z,7.05
2023-01-07T01:26:13.095Z,7.19
2023-01-07T01:28:39.939Z,7.20
2023-01-07T01:31:09.357Z,7.05
2023-01-07T01:33:46.594Z,7.15
2023-01-07T01:36:13.456Z,7.14
2023-01-07T01:38:40.954Z,7.13
2023-01-07T01:41:08.837Z,7.07
2023-01-07T01:43:41.425Z,7.01
2023-01-07T01:46:34.929Z,6.95
2023-01-07T01:49:10.712Z,6.93
2023-01-07T01:51:41.062Z,6.86
2023-01-07T01:54:12.198Z,6.91
2023-01-07T01:56:45.190Z,6.95
2023-01-07T01:59:17.727Z,6.93
2023-01-07T02:01:45.502Z,6.90
2023-01-07T02:04:19.849Z,6.90
2023-01-07T02:07:09.403Z,6.87
2023-01-07T02:09:39.920Z,6.88
2023-01-07T02:12:32.781Z,6.88
2023-01-07T02:15:05.477Z,6.91
2023-01-07T02:17:38.452Z,6.90
2023-01-07T02:20:25.753Z,6.86
2023-01-07T02:23:11.067Z,6.86
2023-01-07T02:25:46.463Z,6.88
2023-01-07T02:28:34.291Z,6.93
2023-01-07T02:31:19.703Z,6.93
2023-01-07T02:33:46.408Z,6.88
2023-01-07T02:36:31.383Z,6.84
2023-01-07T02:39:10.854Z,6.84
2023-01-07T02:41:59.916Z,6.89
2023-01-07T02:44:44.167Z,6.88
2023-01-07T02:47:29.485Z,6.86
2023-01-07T02:49:58.618Z,6.86
2023-01-07T02:52:32.372Z,6.87
2023-01-07T02:55:13.732Z,6.91
2023-01-07T02:57:54.613Z,6.94
2023-01-07T03:00:50.957Z,6.88
2023-01-07T03:03:25.818Z,6.86
2023-01-07T03:06:26.640Z,6.90
2023-01-07T03:09:01.174Z,6.92
2023-01-07T03:11:35.181Z,6.94
2023-01-07T03:14:20.771Z,6.96
2023-01-07T03:17:02.958Z,6.92
2023-01-07T03:19:32.896Z,6.93
2023-01-07T03:22:01.493Z,6.84
2023-01-07T03:24:31.238Z,6.94
2023-01-07T03:27:00.451Z,6.99
2023-01-07T03:29:28.142Z,6.87
2023-01-07T03:32:09.406Z,6.76
2023-01-07T03:34:38.879Z,6.66
2023-01-07T03:37:11.300Z,6.61
2023-01-07T03:39:40.312Z,6.51
2023-01-07T03:42:28.506Z,6.53
2023-01-07T03:44:55.288Z,6.46
2023-01-07T03:47:26.420Z,6.41
2023-01-07T03:49:53.239Z,6.32
2023-01-07T03:52:19.945Z,6.29
2023-01-07T03:54:46.659Z,6.31
2023-01-07T03:57:14.058Z,6.36
2023-01-07T03:59:41.038Z,6.31
2023-01-07T04:02:07.994Z,6.31
2023-01-07T04:04:35.351Z,6.30
2023-01-07T04:07:02.136Z,6.23
2023-01-07T04:09:28.785Z,6.21
2023-01-07T04:11:55.833Z,6.15
2023-01-07T04:14:22.795Z,6.08
2023-01-07T04:16:51.393Z,6.06
2023-01-07T04:19:18.361Z,6.11
2023-01-07T04:21:45.941Z,6.11
2023-01-07T04:24:12.766Z,6.11
2023-01-07T04:26:40.081Z,6.15
2023-01-07T04:29:07.528Z,6.11
2023-01-07T04:31:34.652Z,6.18
2023-01-07T04:34:02.087Z,6.11
2023-01-07T04:36:29.354Z,6.14
2023-01-07T04:38:56.536Z,6.14
2023-01-07T04:41:23.297Z,6.17
2023-01-07T04:43:50.543Z,6.19
2023-01-07T04:46:17.273Z,6.22
2023-01-07T04:48:44.267Z,6.24
2023-01-07T04:51:11.155Z,6.29
2023-01-07T04:53:38.515Z,6.18
2023-01-07T04:56:06.454Z,6.16
2023-01-07T04:58:33.746Z,6.13
2023-01-07T05:01:03.735Z,6.11
2023-01-07T05:03:34.482Z,6.05
2023-01-07T05:06:02.912Z,6.04
2023-01-07T05:08:30.048Z,6.01
2023-01-07T05:10:57.179Z,5.90
2023-01-07T05:13:24.755Z,5.90
2023-01-07T05:15:52.150Z,5.85
2023-01-07T05:18:19.821Z,5.86
2023-01-07T05:20:48.295Z,5.82
2023-01-07T05:23:15.422Z,5.90
2023-01-07T05:25:43.677Z,5.89
2023-01-07T05:28:12.081Z,5.90
2023-01-07T05:30:40.186Z,5.83
2023-01-07T05:33:07.781Z,5.83
2023-01-07T05:35:35.962Z,5.83
2023-01-07T05:38:03.040Z,5.84
2023-01-07T05:40:29.861Z,5.80
2023-01-07T05:42:56.580Z,5.82
2023-01-07T05:45:23.320Z,5.79
2023-01-07T05:47:50.022Z,5.75
2023-01-07T05:50:16.767Z,5.78
2023-01-07T05:52:43.540Z,5.74
2023-01-07T05:55:10.297Z,5.78
2023-01-07T05:57:36.925Z,5.82
2023-01-07T06:00:04.473Z,5.79
2023-01-07T06:02:38.695Z,5.79
2023-01-07T06:05:05.891Z,5.83
2023-01-07T06:07:32.669Z,5.78
2023-01-07T06:10:00.774Z,5.77
2023-01-07T06:12:28.441Z,5.81
2023-01-07T06:14:55.087Z,5.82
2023-01-07T06:17:21.694Z,5.83
2023-01-07T06:19:48.442Z,5.81
2023-01-07T06:22:15.280Z,5.82
2023-01-07T06:24:41.971Z,5.81
2023-01-07T06:27:10.178Z,5.83
2023-01-07T06:29:36.849Z,5.86
2023-01-07T06:32:03.653Z,5.84
2023-01-07T06:34:30.311Z,5.83
2023-01-07T06:36:56.979Z,5.84
2023-01-07T06:39:23.853Z,5.85
2023-01-07T06:41:50.481Z,5.91
2023-01-07T06:44:17.107Z,5.92
2023-01-07T06:46:44.025Z,5.89
2023-01-07T06:49:10.666Z,5.91
2023-01-07T06:51:37.345Z,5.84
2023-01-07T06:54:04.263Z,5.81
2023-01-07T06:56:30.937Z,5.83
2023-01-07T06:58:57.616Z,5.81
2023-01-07T07:01:24.453Z,5.84
2023-01-07T07:03:51.155Z,5.84
2023-01-07T07:06:17.778Z,5.86
2023-01-07T07:08:44.419Z,5.85
2023-01-07T07:11:11.058Z,5.81
2023-01-07T07:13:37.685Z,5.85
2023-01-07T07:16:04.545Z,5.76
2023-01-07T07:18:31.193Z,5.71
2023-01-07T07:20:58.820Z,5.65
2023-01-07T07:23:25.724Z,5.65
2023-01-07T07:25:52.429Z,5.61
2023-01-07T07:28:19.081Z,5.58
2023-01-07T07:30:48.028Z,5.55
2023-01-07T07:33:16.019Z,5.54
2023-01-07T07:35:42.696Z,5.55
2023-01-07T07:38:09.601Z,5.52
2023-01-07T07:40:36.576Z,5.57
2023-01-07T07:43:11.455Z,5.55
2023-01-07T07:45:42.754Z,5.59
2023-01-07T07:48:10.293Z,5.60
2023-01-07T07:50:37.367Z,5.66
2023-01-07T07:53:04.753Z,5.66
2023-01-07T07:55:31.493Z,5.65
2023-01-07T07:58:01.076Z,5.65
2023-01-07T08:00:27.825Z,5.62
2023-01-07T08:02:58.300Z,5.63
2023-01-07T08:05:25.291Z,5.68
2023-01-07T08:07:51.969Z,5.68
2023-01-07T08:10:20.613Z,5.77
2023-01-07T08:12:47.621Z,5.76
2023-01-07T08:15:14.237Z,5.71
2023-01-07T08:17:40.884Z,5.65
2023-01-07T08:20:08.450Z,5.78
2023-01-07T08:22:35.281Z,5.78
2023-01-07T08:25:02.298Z,5.82
2023-01-07T08:27:29.162Z,5.88
2023-01-07T08:29:56.498Z,5.86
2023-01-07T08:32:23.569Z,5.89
2023-01-07T08:34:50.434Z,5.86
2023-01-07T08:37:17.355Z,5.78
2023-01-07T08:39:44.066Z,5.83
2023-01-07T08:42:10.705Z,5.83
2023-01-07T08:44:37.510Z,5.82
2023-01-07T08:47:04.170Z,5.73
2023-01-07T08:49:32.019Z,5.84
2023-01-07T08:51:58.667Z,5.78
2023-01-07T08:54:25.316Z,5.91
2023-01-07T08:56:51.962Z,5.93
2023-01-07T08:59:18.700Z,5.95
2023-01-07T09:01:45.524Z,5.98
2023-01-07T09:04:12.291Z,6.05
2023-01-07T09:06:38.957Z,6.18
2023-01-07T09:09:05.719Z,6.45
2023-01-07T09:11:32.355Z,7.12
2023-01-07T09:13:58.998Z,7.63
2023-01-07T09:16:25.808Z,8.10
2023-01-07T09:18:52.502Z,8.50
2023-01-07T09:21:19.189Z,8.74
2023-01-07T09:23:45.805Z,8.92
2023-01-07T09:26:12.478Z,8.93
2023-01-07T09:28:39.196Z,9.04
2023-01-07T09:31:07.161Z,9.04
2023-01-07T09:33:33.972Z,9.00
2023-01-07T09:36:00.645Z,9.12
2023-01-07T09:38:27.541Z,9.23
2023-01-07T09:40:54.251Z,9.49
2023-01-07T09:43:58.750Z,9.63
2023-01-07T09:46:23.507Z,9.76
2023-01-07T09:48:57.891Z,9.83
2023-01-07T09:51:34.923Z,9.78
2023-01-07T09:54:04.141Z,10.10
2023-01-07T09:56:34.890Z,10.37
2023-01-07T09:59:03.796Z,10.33
2023-01-07T10:01:33.476Z,10.35
2023-01-07T10:04:26.816Z,10.51
2023-01-07T10:07:13.912Z,10.66
2023-01-07T10:09:54.969Z,10.68
2023-01-07T10:12:30.574Z,10.56
2023-01-07T10:15:06.524Z,10.58
2023-01-07T10:18:06.884Z,10.71
2023-01-07T10:20:50.822Z,10.55
2023-01-07T10:23:28.809Z,10.45
2023-01-07T10:25:57.386Z,9.99
2023-01-07T10:28:34.929Z,9.52
2023-01-07T10:31:03.854Z,9.55
2023-01-07T10:33:33.297Z,9.92
2023-01-07T10:36:30.915Z,10.04
2023-01-07T10:39:27.592Z,9.77
2023-01-07T10:42:21.913Z,10.19
2023-01-07T10:44:59.465Z,9.92
2023-01-07T10:47:39.167Z,9.45
2023-01-07T10:50:33.045Z,9.61
2023-01-07T10:53:08.328Z,9.96
2023-01-07T10:55:43.205Z,9.83
2023-01-07T10:58:11.328Z,10.29
2023-01-07T11:00:40.113Z,10.47
2023-01-07T11:03:17.683Z,10.64
2023-01-07T11:05:46.213Z,10.81
2023-01-07T11:08:43.066Z,10.69
2023-01-07T11:11:22.205Z,10.43
2023-01-07T11:14:01.010Z,10.20
2023-01-07T11:16:32.345Z,10.35
2023-01-07T11:19:09.519Z,10.48
2023-01-07T11:21:43.337Z,10.80
2023-01-07T11:24:33.744Z,10.75
2023-01-07T11:27:21.728Z,10.93
2023-01-07T11:30:03.915Z,10.58
2023-01-07T11:32:38.373Z,10.04
2023-01-07T11:35:22.562Z,10.14
2023-01-07T11:37:50.039Z,10.01
2023-01-07T11:40:20.943Z,10.42
2023-01-07T11:42:48.625Z,10.67
2023-01-07T11:45:33.160Z,10.75
2023-01-07T11:48:09.939Z,10.59
2023-01-07T11:50:44.478Z,10.45
2023-01-07T11:53:13.827Z,10.71
2023-01-07T11:56:00.443Z,10.82
2023-01-07T11:58:31.135Z,10.33
2023-01-07T12:01:10.382Z,10.49
2023-01-07T12:03:43.303Z,10.77
2023-01-07T12:06:20.333Z,10.79
2023-01-07T12:09:20.409Z,10.77
2023-01-07T12:11:47.281Z,10.57
2023-01-07T12:14:16.899Z,9.94
2023-01-07T12:16:47.680Z,9.69
2023-01-07T12:19:25.098Z,9.59
2023-01-07T12:22:00.911Z,9.82
2023-01-07T12:24:49.450Z,10.37
2023-01-07T12:27:34.172Z,10.62
2023-01-07T12:30:22.556Z,10.70
2023-01-07T12:32:52.106Z,10.73
2023-01-07T12:35:33.207Z,10.81
2023-01-07T12:38:12.525Z,10.89
2023-01-07T12:41:00.249Z,10.69
2023-01-07T12:43:38.212Z,10.67
2023-01-07T12:46:13.551Z,10.68
2023-01-07T12:48:58.359Z,10.89
2023-01-07T12:51:30.830Z,10.90
2023-01-07T12:54:18.711Z,10.90
2023-01-07T12:56:56.464Z,10.78
2023-01-07T12:59:56.001Z,10.68
2023-01-07T13:02:48.675Z,10.36
2023-01-07T13:05:18.124Z,10.39
2023-01-07T13:08:04.120Z,10.62
2023-01-07T13:10:39.107Z,10.66
2023-01-07T13:13:17.155Z,10.78
2023-01-07T13:15:43.988Z,10.93
2023-01-07T13:18:10.614Z,10.90
2023-01-07T13:21:09.850Z,10.85
2023-01-07T13:24:14.475Z,10.60
2023-01-07T13:27:02.737Z,10.67
2023-01-07T13:29:37.914Z,10.63
2023-01-07T13:32:23.173Z,10.50
2023-01-07T13:34:52.851Z,10.42
2023-01-07T13:38:10.305Z,10.57
2023-01-07T13:41:04.648Z,10.65
2023-01-07T13:43:58.203Z,10.04
2023-01-07T13:46:37.661Z,9.80
2023-01-07T13:49:05.988Z,9.79
2023-01-07T13:51:38.200Z,9.99
2023-01-07T13:54:05.071Z,9.80
2023-01-07T13:56:35.572Z,9.71
2023-01-07T13:59:02.322Z,9.79
2023-01-07T14:01:33.862Z,9.69
2023-01-07T14:04:03.684Z,9.56
2023-01-07T14:06:30.250Z,9.46
2023-01-07T14:09:19.451Z,9.43
2023-01-07T14:12:07.909Z,9.30
2023-01-07T14:14:34.539Z,9.01
2023-01-07T14:17:28.508Z,8.90
2023-01-07T14:20:04.264Z,8.82
2023-01-07T14:22:49.127Z,8.83
2023-01-07T14:25:33.490Z,8.65
2023-01-07T14:28:30.291Z,8.62
2023-01-07T14:30:58.373Z,8.50
2023-01-07T14:33:40.008Z,8.35
2023-01-07T14:36:10.115Z,8.22
2023-01-07T14:38:36.819Z,8.12
2023-01-07T14:41:03.451Z,8.19
2023-01-07T14:43:48.465Z,8.16
2023-01-07T14:46:21.206Z,7.89
2023-01-07T14:49:34.928Z,7.65
2023-01-07T14:52:14.495Z,7.52
2023-01-07T14:54:59.261Z,7.51
2023-01-07T14:58:05.920Z,7.40
2023-01-07T15:00:59.349Z,7.07
2023-01-07T15:03:54.346Z,6.93
2023-01-07T15:06:35.706Z,6.80
2023-01-07T15:09:28.140Z,6.71
2023-01-07T15:12:17.213Z,6.59
2023-01-07T15:15:07.464Z,6.47
2023-01-07T15:17:34.392Z,6.50
2023-01-07T15:20:05.399Z,6.57
2023-01-07T15:23:13.656Z,6.54
2023-01-07T15:26:14.037Z,6.50
2023-01-07T15:28:52.691Z,6.43
2023-01-07T15:31:29.045Z,6.42
2023-01-07T15:34:07.373Z,6.38
2023-01-07T15:36:40.132Z,6.27
2023-01-07T15:39:06.809Z,6.20
2023-01-07T15:41:39.522Z,6.15
2023-01-07T15:44:29.210Z,6.05
2023-01-07T15:46:56.362Z,6.02
2023-01-07T15:49:24.399Z,5.98
2023-01-07T15:51:55.756Z,5.94
2023-01-07T15:54:27.344Z,5.91
2023-01-07T15:56:59.889Z,5.91
2023-01-07T15:59:30.306Z,5.82
2023-01-07T16:02:20.515Z,5.82
2023-01-07T16:04:50.121Z,5.76
2023-01-07T16:07:41.643Z,5.65
2023-01-07T16:10:34.681Z,5.63
2023-01-07T16:13:16.210Z,5.55
2023-01-07T16:15:42.911Z,5.46
2023-01-07T16:18:09.504Z,5.48
2023-01-07T16:20:50.918Z,5.43
2023-01-07T16:23:19.615Z,5.46
2023-01-07T16:25:53.317Z,5.45
2023-01-07T16:28:32.973Z,5.44
2023-01-07T16:31:00.496Z,5.40
2023-01-07T16:33:30.099Z,5.40
2023-01-07T16:36:01.111Z,5.37
2023-01-07T16:38:28.662Z,5.37
2023-01-07T16:40:55.797Z,5.32
2023-01-07T16:43:40.929Z,5.37
2023-01-07T16:46:23.952Z,5.32
2023-01-07T16:49:09.232Z,5.30
2023-01-07T16:51:40.351Z,5.24
2023-01-07T16:54:25.108Z,5.18
2023-01-07T16:56:54.875Z,5.16
2023-01-07T16:59:24.794Z,5.04
2023-01-07T17:01:51.989Z,4.98
2023-01-07T17:04:29.925Z,4.92
2023-01-07T17:07:00.851Z,4.88
2023-01-07T17:09:37.046Z,4.77
2023-01-07T17:12:04.633Z,4.74
2023-01-07T17:14:34.252Z,4.74
2023-01-07T17:17:03.163Z,4.71
2023-01-07T17:19:39.763Z,4.73
2023-01-07T17:22:38.149Z,4.76
2023-01-07T17:25:24.561Z,4.67
2023-01-07T17:27:53.780Z,4.67
2023-01-07T17:30:22.516Z,4.63
2023-01-07T17:32:53.220Z,4.65
2023-01-07T17:35:22.685Z,4.67
2023-01-07T17:37:50.265Z,4.62
2023-01-07T17:40:17.890Z,4.62
2023-01-07T17:43:05.685Z,4.62
2023-01-07T17:45:32.708Z,4.57
2023-01-07T17:48:01.080Z,4.42
2023-01-07T17:50:36.281Z,4.23
2023-01-07T17:53:03.403Z,3.99
2023-01-07T17:55:34.337Z,3.94
2023-01-07T17:58:00.958Z,3.82
2023-01-07T18:00:30.961Z,3.89
2023-01-07T18:02:58.261Z,3.94
2023-01-07T18:05:26.372Z,4.00
2023-01-07T18:07:53.418Z,4.02
2023-01-07T18:10:24.393Z,4.03
2023-01-07T18:12:51.009Z,4.09
2023-01-07T18:15:27.268Z,4.14
2023-01-07T18:17:53.934Z,4.12
2023-01-07T18:20:22.423Z,4.11
2023-01-07T18:22:49.744Z,4.06
2023-01-07T18:25:19.514Z,4.03
2023-01-07T18:27:47.182Z,4.01
2023-01-07T18:30:19.758Z,3.96
2023-01-07T18:32:47.162Z,4.00
2023-01-07T18:35:14.634Z,4.04
2023-01-07T18:37:41.625Z,4.05
2023-01-07T18:40:09.656Z,4.03
2023-01-07T18:42:36.881Z,4.01
2023-01-07T18:45:04.964Z,4.06
2023-01-07T18:47:32.059Z,4.06
2023-01-07T18:49:58.920Z,3.99
2023-01-07T18:52:25.944Z,3.98
2023-01-07T18:54:52.617Z,3.94
2023-01-07T18:57:19.330Z,3.88
2023-01-07T18:59:45.992Z,3.78
2023-01-07T19:02:18.188Z,3.78
2023-01-07T19:04:46.562Z,3.83
2023-01-07T19:07:13.279Z,3.84
2023-01-07T19:09:39.989Z,3.83
2023-01-07T19:12:07.051Z,3.83
2023-01-07T19:14:34.157Z,3.82
2023-01-07T19:17:01.868Z,3.77
2023-01-07T19:19:32.014Z,3.80
2023-01-07T19:22:00.813Z,3.81
2023-01-07T19:24:27.591Z,3.72
2023-01-07T19:26:54.240Z,3.61
2023-01-07T19:29:20.925Z,3.64
2023-01-07T19:31:47.782Z,3.60
2023-01-07T19:34:15.295Z,3.62
2023-01-07T19:36:46.627Z,3.64
2023-01-07T19:39:16.093Z,3.62
2023-01-07T19:41:43.131Z,3.59
2023-01-07T19:44:10.969Z,3.60
2023-01-07T19:46:38.438Z,3.56
2023-01-07T19:49:06.605Z,3.55
2023-01-07T19:51:34.741Z,3.50
2023-01-07T19:54:02.133Z,3.51
2023-01-07T19:56:32.060Z,3.50
2023-01-07T19:58:59.773Z,3.41
2023-01-07T20:01:28.557Z,3.42
2023-01-07T20:03:59.247Z,3.41
2023-01-07T20:06:28.897Z,3.46
2023-01-07T20:08:57.476Z,3.40
2023-01-07T20:11:25.263Z,3.35
2023-01-07T20:13:51.934Z,3.34
2023-01-07T20:16:23.673Z,3.38
2023-01-07T20:18:53.307Z,3.41
2023-01-07T20:21:27.885Z,3.42
2023-01-07T20:23:54.842Z,3.38
2023-01-07T20:26:25.281Z,3.40
2023-01-07T20:28:52.251Z,3.35
2023-01-07T20:31:21.415Z,3.23
2023-01-07T20:33:49.374Z,3.09
2023-01-07T20:36:21.458Z,3.19
2023-01-07T20:38:48.429Z,3.22
2023-01-07T20:41:18.096Z,3.25
2023-01-07T20:43:49.492Z,3.24
2023-01-07T20:46:16.143Z,3.23
2023-01-07T20:48:42.999Z,3.31
2023-01-07T20:51:10.112Z,3.28
2023-01-07T20:53:37.043Z,3.15
2023-01-07T20:56:04.585Z,3.18
2023-01-07T20:58:33.536Z,3.16
2023-01-07T21:01:09.057Z,3.08
2023-01-07T21:03:37.914Z,3.08
2023-01-07T21:06:06.039Z,3.06
2023-01-07T21:08:33.672Z,3.05
2023-01-07T21:11:00.460Z,3.01
2023-01-07T21:13:27.603Z,3.05
2023-01-07T21:16:01.013Z,3.02
2023-01-07T21:18:27.784Z,2.93
2023-01-07T21:20:54.498Z,2.87
2023-01-07T21:23:21.306Z,2.87
2023-01-07T21:25:48.457Z,2.91
2023-01-07T21:28:15.576Z,3.00
2023-01-07T21:30:42.617Z,3.06
2023-01-07T21:33:09.292Z,3.13
2023-01-07T21:35:39.945Z,3.13
2023-01-07T21:38:07.001Z,3.16
2023-01-07T21:40:33.765Z,3.20
2023-01-07T21:43:00.487Z,3.18
2023-01-07T21:45:27.278Z,3.05
2023-01-07T21:47:53.970Z,2.95
2023-01-07T21:50:20.834Z,3.01
2023-01-07T21:52:47.736Z,3.01
2023-01-07T21:55:14.547Z,3.01
2023-01-07T21:57:42.412Z,3.02
2023-01-07T22:00:09.651Z,3.05
2023-01-07T22:02:39.174Z,3.12
2023-01-07T22:05:06.442Z,3.14
2023-01-07T22:07:33.186Z,2.78
2023-01-07T22:10:00.205Z,2.44
2023-01-07T22:12:28.306Z,2.46
2023-01-07T22:14:54.934Z,2.57
2023-01-07T22:17:24.004Z,2.67
2023-01-07T22:19:50.677Z,2.79
2023-01-07T22:22:19.358Z,2.85
2023-01-07T22:24:46.162Z,2.89
2023-01-07T22:27:12.801Z,2.90
2023-01-07T22:29:39.536Z,2.84
2023-01-07T22:32:06.173Z,2.77
2023-01-07T22:34:32.893Z,2.74
2023-01-07T22:37:06.188Z,2.78
2023-01-07T22:39:41.687Z,2.78
2023-01-07T22:42:14.226Z,2.81
2023-01-07T22:44:45.451Z,2.76
2023-01-07T22:47:15.835Z,2.78
2023-01-07T22:49:43.327Z,2.86
2023-01-07T22:52:11.803Z,2.67
2023-01-07T22:54:39.624Z,2.60
2023-01-07T22:57:08.575Z,2.62
2023-01-07T22:59:35.831Z,2.68
2023-01-07T23:02:02.619Z,2.80
2023-01-07T23:04:29.606Z,2.83
2023-01-07T23:06:56.291Z,2.85
2023-01-07T23:09:22.926Z,2.87
2023-01-07T23:11:50.536Z,2.92
2023-01-07T23:14:19.444Z,2.94
2023-01-07T23:16:46.400Z,2.99
2023-01-07T23:19:13.478Z,3.03
2023-01-07T23:21:45.422Z,3.13
2023-01-07T23:24:13.304Z,3.08
2023-01-07T23:26:40.969Z,2.64
2023-01-07T23:29:07.734Z,2.27
2023-01-07T23:31:36.025Z,2.06
2023-01-07T23:34:05.120Z,2.01
2023-01-07T23:36:31.983Z,2.04
2023-01-07T23:38:58.624Z,1.99
2023-01-07T23:41:25.387Z,2.06
2023-01-07T23:43:52.101Z,2.25
2023-01-07T23:46:19.043Z,2.39
2023-01-07T23:48:45.947Z,2.55
2023-01-07T23:51:13.835Z,2.65
2023-01-07T23:53:41.062Z,2.70
2023-01-07T23:56:08.423Z,2.71
2023-01-07T23:58:36.120Z,2.74
